Time;durP1;ratioP1;P1;durP2;ratioP2;P2;SDS_P1;SDS_P2;PMS_P1;PMS_P2;Temp;Humidity;BMP_temperature;BMP_pressure;BME280_temperature;BME280_humidity;BME280_pressure;Samples;Min_cycle;Max_cycle;Signal;HPM_P1;HPM_P2
2022/08/01 00:02:15;;;;;;;56.67;26.30;;;27.60;99.90;;;;;;5056284;28;20019;-64
2022/08/01 00:04:42;;;;;;;52.28;28.23;;;27.60;99.90;;;;;;5056396;28;20024;-63
2022/08/01 00:07:08;;;;;;;46.78;25.85;;;27.70;99.90;;;;;;5056248;28;20024;-63
2022/08/01 00:09:35;;;;;;;43.42;24.58;;;27.70;99.90;;;;;;5055977;28;20024;-64
2022/08/01 00:12:02;;;;;;;36.58;21.38;;;27.80;99.90;;;;;;5056241;28;20021;-63
2022/08/01 00:14:28;;;;;;;41.80;21.70;;;27.60;99.90;;;;;;5056087;28;20053;-63
2022/08/01 00:16:55;;;;;;;37.08;22.42;;;27.70;99.90;;;;;;5055960;28;20486;-64
2022/08/01 00:19:21;;;;;;;46.83;23.58;;;27.60;99.90;;;;;;5056046;28;20036;-62
2022/08/01 00:21:48;;;;;;;40.25;20.30;;;27.70;99.90;;;;;;5055936;28;20021;-61
2022/08/01 00:24:14;;;;;;;50.90;27.58;;;27.70;99.90;;;;;;5055816;28;20561;-61
2022/08/01 00:26:41;;;;;;;52.75;28.58;;;27.60;99.90;;;;;;5055905;28;20424;-63
2022/08/01 00:29:07;;;;;;;50.28;26.08;;;27.60;99.90;;;;;;5056094;28;20029;-64
2022/08/01 00:31:34;;;;;;;41.65;21.63;;;27.60;99.90;;;;;;5074438;28;20040;-64
2022/08/01 00:34:00;;;;;;;41.65;19.10;;;27.60;99.90;;;;;;5055753;28;20051;-64
2022/08/01 00:36:27;;;;;;;42.17;18.65;;;27.70;99.90;;;;;;5055690;28;20043;-64
2022/08/01 00:38:54;;;;;;;46.55;30.50;;;27.80;99.90;;;;;;5055450;28;20024;-63
2022/08/01 00:41:20;;;;;;;38.65;26.48;;;27.80;99.90;;;;;;5055601;28;20029;-64
2022/08/01 00:43:47;;;;;;;78.90;57.75;;;28.00;99.90;;;;;;5055765;28;20025;-63
2022/08/01 00:46:13;;;;;;;59.78;38.15;;;27.90;99.90;;;;;;5055032;28;20049;-64
2022/08/01 00:48:40;;;;;;;43.47;22.42;;;28.00;99.90;;;;;;5074650;28;20029;-64
2022/08/01 00:51:08;;;;;;;44.42;23.80;;;27.90;99.90;;;;;;5076079;28;20024;-63
2022/08/01 00:53:35;;;;;;;38.55;22.15;;;27.90;99.90;;;;;;5075603;28;20107;-64
2022/08/01 00:56:03;;;;;;;44.28;22.27;;;27.90;99.90;;;;;;5074938;28;20465;-64
2022/08/01 00:58:31;;;;;;;41.80;22.42;;;27.80;99.90;;;;;;5076110;28;20040;-63
2022/08/01 01:00:59;;;;;;;42.30;26.00;;;27.80;99.90;;;;;;5075163;28;20103;-63
2022/08/01 01:03:26;;;;;;;51.03;28.27;;;27.80;99.90;;;;;;5071471;28;20033;-63
2022/08/01 01:06:06;;;;;;;49.85;30.15;;;27.90;99.90;;;;;;5055198;28;20017;-64
2022/08/01 01:08:41;;;;;;;46.67;24.83;;;28.10;99.90;;;;;;5055140;28;20113;-64
2022/08/01 01:11:26;;;;;;;55.42;29.88;;;28.20;99.90;;;;;;5062130;28;20017;-62
2022/08/01 01:14:00;;;;;;;42.35;28.70;;;28.20;99.90;;;;;;5074840;28;20119;-64
2022/08/01 01:16:30;;;;;;;52.40;29.02;;;28.30;99.90;;;;;;5059133;28;20061;-64
2022/08/01 01:19:02;;;;;;;50.85;28.92;;;28.30;99.90;;;;;;5054788;28;20021;-62
2022/08/01 01:21:47;;;;;;;48.63;27.52;;;28.30;99.90;;;;;;5054910;28;20112;-63
2022/08/01 01:24:35;;;;;;;50.50;26.05;;;28.30;99.90;;;;;;5058922;28;20209;-64
2022/08/01 01:27:29;;;;;;;51.33;27.90;;;28.20;99.90;;;;;;4997692;28;20121;-64
2022/08/01 01:29:59;;;;;;;37.40;22.40;;;28.20;99.90;;;;;;4993162;28;20514;-65
2022/08/01 01:32:26;;;;;;;42.08;22.98;;;28.40;99.90;;;;;;4993342;28;20458;-63
2022/08/01 01:34:56;;;;;;;46.05;23.63;;;28.60;99.90;;;;;;4993304;28;20039;-63
2022/08/01 01:37:25;;;;;;;45.38;24.85;;;28.70;99.90;;;;;;4993191;28;20026;-63
2022/08/01 01:39:53;;;;;;;39.75;22.92;;;28.80;99.90;;;;;;4993384;28;20484;-64
2022/08/01 01:42:20;;;;;;;31.55;20.67;;;28.90;99.90;;;;;;4993039;28;20386;-63
2022/08/01 01:44:50;;;;;;;30.17;19.42;;;28.80;99.90;;;;;;4992896;28;20126;-63
2022/08/01 01:47:17;;;;;;;42.10;22.10;;;28.80;99.90;;;;;;4992396;28;20081;-64
2022/08/01 01:49:48;;;;;;;39.80;24.83;;;28.80;99.90;;;;;;4991340;28;20467;-63
2022/08/01 01:52:17;;;;;;;33.60;21.10;;;28.80;99.90;;;;;;4992238;28;20038;-64
2022/08/01 01:54:48;;;;;;;35.72;19.67;;;28.90;99.90;;;;;;4991769;28;20036;-62
2022/08/01 01:57:17;;;;;;;43.85;21.38;;;29.00;99.90;;;;;;4992155;28;20062;-62
2022/08/01 01:59:46;;;;;;;29.38;19.02;;;29.10;99.90;;;;;;4992445;28;20297;-66
2022/08/01 02:02:15;;;;;;;29.60;16.42;;;29.10;99.90;;;;;;4992663;28;20049;-63
2022/08/01 02:04:44;;;;;;;31.23;18.58;;;29.10;99.90;;;;;;5038598;28;20040;-63
2022/08/01 02:07:17;;;;;;;29.80;17.95;;;29.10;99.90;;;;;;5053369;28;20401;-64
2022/08/01 02:09:45;;;;;;;32.78;16.90;;;29.20;99.90;;;;;;5053899;28;20033;-64
2022/08/01 02:12:13;;;;;;;28.33;14.95;;;29.30;99.90;;;;;;5053955;28;20386;-64
2022/08/01 02:14:40;;;;;;;25.27;14.55;;;29.40;99.90;;;;;;5053757;28;20474;-64
2022/08/01 02:17:11;;;;;;;25.52;13.07;;;29.50;99.90;;;;;;5053899;28;20033;-64
2022/08/01 02:19:38;;;;;;;19.92;11.05;;;29.60;99.90;;;;;;5053916;28;20090;-65
2022/08/01 02:22:11;;;;;;;16.83;9.38;;;29.60;99.90;;;;;;5053653;28;20466;-64
2022/08/01 02:24:42;;;;;;;18.02;10.07;;;29.70;99.90;;;;;;5053660;28;20466;-63
2022/08/01 02:27:14;;;;;;;21.95;11.05;;;29.70;99.90;;;;;;5053660;28;20017;-64
2022/08/01 02:29:55;;;;;;;21.45;11.38;;;29.80;99.90;;;;;;5053539;28;20103;-64
2022/08/01 02:32:30;;;;;;;15.43;9.82;;;30.00;99.90;;;;;;5053527;28;20101;-63
2022/08/01 02:35:00;;;;;;;20.25;10.25;;;30.20;99.90;;;;;;5053518;28;20053;-63
2022/08/01 02:37:28;;;;;;;20.63;10.82;;;30.20;99.90;;;;;;5053508;28;20028;-65
2022/08/01 02:39:56;;;;;;;14.85;8.23;;;30.10;99.90;;;;;;5053428;28;20025;-65
2022/08/01 02:42:25;;;;;;;21.42;10.68;;;30.20;99.90;;;;;;5053669;28;20099;-64
2022/08/01 02:44:53;;;;;;;21.85;12.32;;;30.20;99.90;;;;;;5053435;28;20040;-66
2022/08/01 02:47:22;;;;;;;38.33;19.77;;;30.30;99.90;;;;;;5052721;28;20068;-66
2022/08/01 02:49:52;;;;;;;76.03;41.83;;;30.30;99.90;;;;;;5053295;28;20390;-66
2022/08/01 02:52:21;;;;;;;96.95;54.67;;;30.40;99.90;;;;;;5053294;28;20382;-65
2022/08/01 02:54:50;;;;;;;36.58;19.65;;;30.40;99.90;;;;;;5053079;28;20024;-66
2022/08/01 02:57:20;;;;;;;35.85;20.73;;;30.40;99.90;;;;;;5052723;28;20401;-66
2022/08/01 02:59:49;;;;;;;32.78;18.20;;;30.50;99.90;;;;;;5051156;28;20021;-66
2022/08/01 03:02:17;;;;;;;25.83;14.18;;;30.40;99.90;;;;;;5051223;28;20063;-66
2022/08/01 03:04:44;;;;;;;19.63;10.18;;;30.60;99.90;;;;;;5051005;28;20025;-65
2022/08/01 03:07:12;;;;;;;21.52;10.57;;;30.50;99.90;;;;;;5051036;28;20096;-65
2022/08/01 03:09:44;;;;;;;15.85;9.38;;;30.40;99.90;;;;;;5049942;28;20086;-66
2022/08/01 03:12:13;;;;;;;;;;;30.40;99.90;;;;;;5051486;28;20021;-66
2022/08/01 03:14:42;;;;;;;26.52;12.32;;;30.40;99.90;;;;;;5052725;28;20098;-66
2022/08/01 03:17:11;;;;;;;22.88;10.27;;;30.30;99.90;;;;;;5053048;28;20470;-65
2022/08/01 03:19:39;;;;;;;19.20;11.65;;;30.30;99.90;;;;;;5057068;28;20098;-64
2022/08/01 03:22:11;;;;;;;24.00;11.45;;;30.40;99.90;;;;;;5056913;28;20027;-64
2022/08/01 03:24:40;;;;;;;26.83;11.40;;;30.40;99.90;;;;;;5057141;28;20032;-65
2022/08/01 03:27:08;;;;;;;20.80;9.95;;;30.50;99.90;;;;;;5056867;28;20108;-64
2022/08/01 03:29:36;;;;;;;22.25;10.88;;;30.60;99.90;;;;;;5056827;28;20021;-62
2022/08/01 03:32:03;;;;;;;29.95;11.38;;;30.60;99.90;;;;;;5056934;28;20098;-63
2022/08/01 03:34:30;;;;;;;23.13;11.63;;;30.70;99.90;;;;;;5057139;28;20021;-63
2022/08/01 03:37:11;;;;;;;30.95;18.42;;;30.70;99.90;;;;;;5056702;28;20060;-63
2022/08/01 03:39:46;;;;;;;23.73;15.68;;;30.70;99.90;;;;;;5056678;28;20033;-63
2022/08/01 03:42:18;;;;;;;21.25;11.02;;;30.70;99.90;;;;;;5056609;28;20104;-63
2022/08/01 03:44:48;;;;;;;;;;;30.70;99.90;;;;;;5056833;28;20035;-63
2022/08/01 03:47:18;;;;;;;23.17;10.50;;;30.70;99.90;;;;;;5056116;28;19916;-63
2022/08/01 03:49:47;;;;;;;20.00;11.20;;;30.70;99.90;;;;;;5056503;28;20037;-63
2022/08/01 03:52:15;;;;;;;22.95;10.73;;;30.70;99.90;;;;;;5056535;28;20045;-63
2022/08/01 03:54:47;;;;;;;17.88;9.75;;;31.00;99.90;;;;;;5056229;28;20378;-63
2022/08/01 03:57:14;;;;;;;17.52;7.95;;;31.20;99.90;;;;;;5056143;28;20482;-64
2022/08/01 03:59:42;;;;;;;17.58;8.15;;;31.40;99.90;;;;;;5061269;28;20045;-63
2022/08/01 04:02:09;;;;;;;22.00;10.00;;;31.40;99.90;;;;;;5060289;28;20021;-62
2022/08/01 04:04:36;;;;;;;55.15;37.03;;;31.50;99.90;;;;;;5056121;28;20036;-63
2022/08/01 04:07:06;;;;;;;22.55;8.02;;;31.70;99.90;;;;;;5069163;28;20052;-66
2022/08/01 04:09:33;;;;;;;22.70;9.00;;;31.80;99.90;;;;;;5069588;28;20104;-67
2022/08/01 04:12:00;;;;;;;17.08;8.05;;;31.90;99.90;;;;;;5058288;28;20028;-68
2022/08/01 04:14:28;;;;;;;18.05;8.02;;;31.90;99.90;;;;;;5058351;28;20029;-67
2022/08/01 04:16:55;;;;;;;25.40;11.05;;;31.90;99.90;;;;;;5068164;28;20546;-66
2022/08/01 04:19:21;;;;;;;20.23;8.90;;;31.90;99.90;;;;;;5066712;28;20017;-68
2022/08/01 04:21:48;;;;;;;25.85;12.40;;;31.90;99.90;;;;;;5068609;28;20028;-65
2022/08/01 04:24:18;;;;;;;17.98;10.02;;;31.80;99.90;;;;;;5064048;28;20048;-63
2022/08/01 04:26:47;;;;;;;17.23;8.02;;;31.70;99.90;;;;;;5068595;28;20470;-64
2022/08/01 04:29:16;;;;;;;12.15;6.65;;;31.50;99.90;;;;;;5062752;28;20096;-64
2022/08/01 04:31:45;;;;;;;12.73;6.88;;;31.50;99.90;;;;;;5066333;28;20028;-65
2022/08/01 04:34:15;;;;;;;17.50;7.53;;;31.50;99.90;;;;;;5069808;28;20024;-69
2022/08/01 04:36:44;;;;;;;12.85;7.03;;;31.50;99.90;;;;;;5068223;28;20102;-67
2022/08/01 04:39:12;;;;;;;21.00;11.07;;;31.60;99.90;;;;;;5064429;28;20025;-68
2022/08/01 04:41:39;;;;;;;20.35;8.70;;;31.70;99.90;;;;;;5063259;28;20016;-68
2022/08/01 04:44:06;;;;;;;20.15;9.45;;;31.80;99.90;;;;;;5063206;28;20027;-69
2022/08/01 04:46:34;;;;;;;15.02;6.88;;;31.80;99.90;;;;;;5062777;28;20096;-69
2022/08/01 04:49:06;;;;;;;14.05;8.00;;;31.90;99.90;;;;;;5063523;28;20040;-67
2022/08/01 04:51:32;;;;;;;21.17;9.82;;;32.00;99.90;;;;;;5062896;28;20025;-68
2022/08/01 04:54:00;;;;;;;13.50;7.97;;;32.00;99.90;;;;;;5061216;28;20029;-69
2022/08/01 04:56:27;;;;;;;21.02;9.07;;;31.90;99.90;;;;;;5062676;28;20511;-69
2022/08/01 05:01:29;;;;;;;12.02;5.90;;;32.10;99.90;;;;;;5063973;28;20056;-69
2022/08/01 05:03:55;;;;;;;21.15;7.00;;;32.20;99.90;;;;;;5063147;28;20473;-70
2022/08/01 05:06:22;;;;;;;19.83;7.40;;;32.30;99.90;;;;;;5059899;28;20025;-69
2022/08/01 05:08:48;;;;;;;11.50;6.82;;;32.30;99.90;;;;;;5055201;28;20013;-69
2022/08/01 05:11:15;;;;;;;13.88;7.13;;;32.20;99.90;;;;;;5055105;28;20021;-69
2022/08/01 05:13:41;;;;;;;12.55;7.30;;;32.10;99.90;;;;;;5054848;28;20029;-70
2022/08/01 05:16:08;;;;;;;12.45;6.68;;;32.00;99.90;;;;;;5054954;28;20070;-70
2022/08/01 05:18:35;;;;;;;12.93;6.05;;;32.00;99.90;;;;;;5054889;28;20021;-71
2022/08/01 05:21:02;;;;;;;16.10;7.18;;;31.90;99.90;;;;;;5054679;28;20025;-70
2022/08/01 05:23:28;;;;;;;16.48;7.35;;;31.90;99.90;;;;;;5054625;28;20070;-69
2022/08/01 05:25:55;;;;;;;13.73;6.55;;;31.90;99.90;;;;;;5060503;28;20021;-71
2022/08/01 05:28:21;;;;;;;12.85;7.38;;;31.90;99.90;;;;;;5064867;28;20497;-69
2022/08/01 05:30:48;;;;;;;13.05;7.18;;;32.00;99.90;;;;;;5064524;28;20021;-68
2022/08/01 05:33:14;;;;;;;13.30;7.47;;;32.00;99.90;;;;;;5062899;28;20013;-68
2022/08/01 05:35:41;;;;;;;14.13;6.85;;;32.10;99.90;;;;;;5064399;28;20044;-67
2022/08/01 05:38:07;;;;;;;18.27;8.95;;;32.20;99.90;;;;;;5064252;28;20017;-66
2022/08/01 05:40:35;;;;;;;13.70;6.80;;;32.30;99.90;;;;;;5062421;28;20021;-66
2022/08/01 05:43:02;;;;;;;12.20;7.30;;;32.40;99.90;;;;;;5064132;28;20036;-67
2022/08/01 05:45:48;;;;;;;21.90;8.18;;;32.50;99.90;;;;;;5063573;28;20039;-67
2022/08/01 05:48:15;;;;;;;14.57;7.10;;;32.70;99.90;;;;;;5069970;28;20045;-66
2022/08/01 05:50:42;;;;;;;15.20;8.48;;;32.80;99.90;;;;;;5071083;28;20400;-67
2022/08/01 05:53:08;;;;;;;12.35;8.20;;;32.80;99.90;;;;;;5064763;28;20035;-67
2022/08/01 05:55:35;;;;;;;21.13;11.85;;;32.90;99.90;;;;;;5070198;28;20070;-67
2022/08/01 05:58:02;;;;;;;16.98;10.27;;;32.80;99.90;;;;;;5065532;28;20021;-67
2022/08/01 06:00:29;;;;;;;13.52;7.97;;;32.80;99.90;;;;;;5062709;28;20016;-66
2022/08/01 06:02:55;;;;;;;19.23;10.98;;;32.80;99.90;;;;;;5063875;28;20485;-66
2022/08/01 06:05:22;;;;;;;39.95;22.35;;;32.80;99.90;;;;;;5062947;28;20082;-67
2022/08/01 06:07:49;;;;;;;28.02;16.70;;;32.70;99.90;;;;;;5062599;28;20031;-67
2022/08/01 06:10:15;;;;;;;20.42;14.13;;;32.70;99.90;;;;;;5064130;28;20027;-68
2022/08/01 06:12:42;;;;;;;81.50;60.45;;;32.70;99.90;;;;;;5062802;28;20496;-63
2022/08/01 06:15:09;;;;;;;36.80;25.10;;;32.70;99.90;;;;;;5062871;28;20028;-63
2022/08/01 06:17:36;;;;;;;39.97;19.50;;;32.60;99.90;;;;;;5064031;28;20012;-63
2022/08/01 06:20:03;;;;;;;21.13;9.00;;;32.50;99.90;;;;;;5062605;28;20017;-63
2022/08/01 06:22:29;;;;;;;82.40;57.92;;;32.60;99.90;;;;;;5062673;28;20024;-63
2022/08/01 06:24:56;;;;;;;47.55;30.92;;;32.70;99.90;;;;;;5064030;28;20032;-63
2022/08/01 06:27:24;;;;;;;29.92;20.95;;;32.70;99.90;;;;;;5062463;28;20021;-64
2022/08/01 06:29:53;;;;;;;23.60;15.07;;;32.70;99.90;;;;;;5062114;28;20021;-63
2022/08/01 06:32:24;;;;;;;11.25;7.78;;;32.70;99.90;;;;;;5062096;28;20067;-64
2022/08/01 06:34:51;;;;;;;13.05;7.00;;;32.80;99.90;;;;;;5062054;28;20039;-63
2022/08/01 06:37:17;;;;;;;13.82;6.95;;;33.00;99.90;;;;;;5063816;28;20078;-63
2022/08/01 06:39:44;;;;;;;16.42;8.45;;;33.10;99.90;;;;;;5062302;28;20028;-64
2022/08/01 06:42:10;;;;;;;20.92;9.27;;;33.20;99.90;;;;;;5061804;28;20016;-63
2022/08/01 06:44:37;;;;;;;20.52;10.93;;;33.30;99.90;;;;;;5067989;28;20560;-65
2022/08/01 06:47:03;;;;;;;25.40;12.95;;;33.40;99.90;;;;;;5063235;28;20021;-64
2022/08/01 06:49:31;;;;;;;17.58;8.95;;;33.40;99.90;;;;;;5060809;28;20044;-65
2022/08/01 06:51:58;;;;;;;14.25;8.02;;;33.40;99.90;;;;;;5062371;28;20017;-65
2022/08/01 06:54:24;;;;;;;14.55;8.32;;;33.40;99.40;;;;;;5061101;28;20029;-63
2022/08/01 06:56:51;;;;;;;16.75;9.65;;;33.30;99.20;;;;;;5060130;28;20021;-64
2022/08/01 06:59:17;;;;;;;17.85;8.98;;;33.30;99.80;;;;;;5060300;28;20064;-64
2022/08/01 07:01:44;;;;;;;20.63;10.30;;;33.30;99.80;;;;;;5062083;28;20033;-67
2022/08/01 07:04:10;;;;;;;21.25;9.55;;;33.30;99.70;;;;;;5062866;28;20017;-66
2022/08/01 07:06:36;;;;;;;21.00;8.23;;;33.20;99.50;;;;;;5060720;28;20031;-67
2022/08/01 07:09:03;;;;;;;19.33;8.00;;;33.30;99.60;;;;;;5062093;28;20021;-67
2022/08/01 07:11:30;;;;;;;14.18;6.20;;;33.40;98.80;;;;;;5062046;28;20406;-66
2022/08/01 07:13:56;;;;;;;11.50;5.88;;;33.50;98.50;;;;;;5060630;28;20078;-67
2022/08/01 07:16:23;;;;;;;11.85;6.60;;;33.50;97.30;;;;;;5062270;28;20033;-67
2022/08/01 07:18:49;;;;;;;15.32;6.75;;;33.40;97.10;;;;;;5062012;28;20013;-67
2022/08/01 07:21:16;;;;;;;12.82;6.80;;;33.40;96.90;;;;;;5062869;28;20369;-67
2022/08/01 07:23:42;;;;;;;11.35;6.40;;;33.20;97.20;;;;;;5061794;28;20031;-67
2022/08/01 07:26:09;;;;;;;13.48;6.47;;;33.10;97.30;;;;;;5061215;28;20017;-67
2022/08/01 07:28:36;;;;;;;16.33;6.97;;;33.10;96.10;;;;;;5062791;28;20495;-67
2022/08/01 07:31:02;;;;;;;12.88;5.25;;;32.90;96.60;;;;;;5061412;28;20070;-67
2022/08/01 07:33:29;;;;;;;16.30;6.18;;;32.60;99.60;;;;;;5061033;28;20021;-66
2022/08/01 07:35:55;;;;;;;16.98;9.95;;;32.20;99.90;;;;;;5062527;28;20036;-66
2022/08/01 07:38:22;;;;;;;26.25;16.45;;;31.90;99.90;;;;;;5061401;28;20017;-66
2022/08/01 07:40:48;;;;;;;33.80;21.05;;;31.80;99.90;;;;;;5061067;28;20017;-66
2022/08/01 07:43:15;;;;;;;63.20;39.08;;;31.80;99.90;;;;;;5062492;28;20517;-67
2022/08/01 07:45:42;;;;;;;50.80;34.00;;;31.80;99.90;;;;;;5061196;28;20013;-67
2022/08/01 07:48:08;;;;;;;24.15;11.98;;;31.70;99.90;;;;;;5061210;28;20450;-67
2022/08/01 07:50:36;;;;;;;21.88;12.40;;;31.60;99.90;;;;;;5051509;28;20308;-67
2022/08/01 07:53:03;;;;;;;41.20;19.08;;;31.60;99.90;;;;;;5050772;28;20053;-66
2022/08/01 07:55:30;;;;;;;41.08;21.15;;;31.60;99.90;;;;;;5051743;28;20039;-65
2022/08/01 07:57:56;;;;;;;55.63;22.52;;;31.60;99.90;;;;;;5051832;28;20071;-67
2022/08/01 08:00:23;;;;;;;47.00;22.38;;;31.60;99.90;;;;;;5051996;28;20021;-67
2022/08/01 08:02:49;;;;;;;29.40;14.70;;;31.60;99.90;;;;;;5067908;28;20541;-66
2022/08/01 08:05:16;;;;;;;26.60;14.23;;;31.60;99.90;;;;;;5075014;28;20064;-67
2022/08/01 08:07:43;;;;;;;25.20;12.85;;;31.70;99.90;;;;;;5068536;28;20052;-68
2022/08/01 08:10:09;;;;;;;25.80;11.73;;;31.70;99.90;;;;;;5055455;28;20104;-66
2022/08/01 08:12:36;;;;;;;16.90;8.90;;;31.70;99.90;;;;;;5055083;28;20025;-65
2022/08/01 08:15:05;;;;;;;15.95;8.52;;;31.70;99.90;;;;;;5055342;28;20109;-66
2022/08/01 08:17:32;;;;;;;15.73;7.53;;;31.80;99.90;;;;;;5059873;28;20111;-65
2022/08/01 08:19:58;;;;;;;17.95;8.75;;;31.80;99.90;;;;;;5064173;28;20032;-65
2022/08/01 08:22:25;;;;;;;11.50;6.82;;;32.00;99.90;;;;;;5064016;28;20025;-64
2022/08/01 08:24:51;;;;;;;18.02;8.38;;;32.00;99.90;;;;;;5065155;28;20354;-65
2022/08/01 08:27:18;;;;;;;15.43;7.25;;;32.10;99.90;;;;;;5066463;28;20044;-65
2022/08/01 08:29:44;;;;;;;24.63;8.27;;;32.30;99.90;;;;;;5064688;28;20031;-65
2022/08/01 08:32:11;;;;;;;21.23;10.07;;;32.50;99.90;;;;;;5065050;28;20013;-65
2022/08/01 08:34:38;;;;;;;16.60;7.45;;;32.50;99.90;;;;;;5065763;28;20082;-65
2022/08/01 08:37:04;;;;;;;14.15;5.75;;;32.60;99.40;;;;;;5064291;28;20067;-65
2022/08/01 08:39:31;;;;;;;16.27;5.88;;;32.60;98.40;;;;;;5064774;28;20027;-65
2022/08/01 08:42:01;;;;;;;13.40;6.35;;;32.60;98.40;;;;;;5065676;28;20486;-64
2022/08/01 08:44:28;;;;;;;15.68;6.47;;;32.60;98.60;;;;;;5064358;28;20029;-65
2022/08/01 08:46:56;;;;;;;15.93;6.95;;;32.50;98.70;;;;;;5061988;28;20033;-65
2022/08/01 08:49:26;;;;;;;13.07;7.60;;;32.40;99.00;;;;;;5056704;28;20045;-65
2022/08/01 08:51:56;;;;;;;25.13;9.80;;;32.30;99.40;;;;;;5055202;28;20079;-64
2022/08/01 08:54:24;;;;;;;16.05;8.20;;;32.30;99.90;;;;;;5054998;28;20036;-64
2022/08/01 08:56:52;;;;;;;11.10;7.20;;;32.30;99.90;;;;;;5055158;28;20025;-64
2022/08/01 08:59:20;;;;;;;16.10;7.03;;;32.20;99.60;;;;;;5055117;28;20029;-65
2022/08/01 09:01:47;;;;;;;14.38;6.90;;;32.10;99.70;;;;;;5055044;28;20031;-65
2022/08/01 09:04:14;;;;;;;13.85;7.72;;;32.10;99.40;;;;;;5054971;28;20032;-65
2022/08/01 09:06:41;;;;;;;14.40;6.90;;;32.00;99.90;;;;;;5055046;28;20049;-67
2022/08/01 09:09:09;;;;;;;16.70;7.65;;;32.00;99.90;;;;;;5054489;28;20025;-66
2022/08/01 09:11:37;;;;;;;12.65;6.72;;;31.90;99.90;;;;;;5052985;28;20017;-65
2022/08/01 09:14:05;;;;;;;12.77;6.03;;;31.90;99.80;;;;;;5052815;28;20646;-66
2022/08/01 09:16:33;;;;;;;13.38;6.70;;;31.90;99.60;;;;;;5052299;28;20025;-65
2022/08/01 09:19:13;;;;;;;29.55;10.25;;;31.80;99.60;;;;;;5053102;28;20025;-64
2022/08/01 09:21:40;;;;;;;21.85;11.52;;;31.90;99.90;;;;;;5052879;28;20424;-64
2022/08/01 09:24:15;;;;;;;31.52;12.05;;;31.90;99.90;;;;;;5052514;28;20021;-64
2022/08/01 09:26:42;;;;;;;35.00;17.30;;;31.70;99.90;;;;;;5054207;28;20104;-65
2022/08/01 09:29:18;;;;;;;46.17;17.08;;;31.70;99.90;;;;;;5054973;28;20017;-65
2022/08/01 09:31:46;;;;;;;33.25;14.90;;;31.70;99.90;;;;;;5061550;28;20108;-66
2022/08/01 09:34:13;;;;;;;26.10;13.85;;;31.70;99.90;;;;;;5074772;28;20471;-66
2022/08/01 09:36:48;;;;;;;29.20;13.15;;;31.60;99.90;;;;;;5074609;28;20025;-65
2022/08/01 09:39:15;;;;;;;16.92;9.43;;;31.70;99.90;;;;;;5070859;28;20497;-66
2022/08/01 09:41:42;;;;;;;22.52;8.75;;;31.60;99.90;;;;;;5063526;28;20047;-66
2022/08/01 09:44:08;;;;;;;21.98;9.15;;;31.50;99.90;;;;;;5063676;28;20032;-67
2022/08/01 09:46:36;;;;;;;18.73;7.57;;;31.50;99.90;;;;;;5061827;28;20024;-65
2022/08/01 09:49:05;;;;;;;13.25;7.57;;;31.50;99.90;;;;;;5065033;28;20558;-67
2022/08/01 09:51:37;;;;;;;23.58;8.38;;;31.50;99.90;;;;;;5065721;28;20020;-65
2022/08/01 09:54:06;;;;;;;21.92;12.32;;;31.50;99.90;;;;;;5064006;28;20051;-66
2022/08/01 09:56:38;;;;;;;26.52;11.02;;;31.50;99.90;;;;;;5063374;28;20033;-65
2022/08/01 09:59:05;;;;;;;22.52;9.25;;;31.50;99.90;;;;;;5062157;28;20025;-66
2022/08/01 10:01:52;;;;;;;27.30;12.15;;;31.50;99.90;;;;;;5063103;28;20051;-65
2022/08/01 10:04:22;;;;;;;27.45;12.25;;;31.50;99.90;;;;;;5063810;28;20378;-66
2022/08/01 10:06:52;;;;;;;31.70;14.18;;;31.40;99.90;;;;;;5062862;28;20059;-67
2022/08/01 10:09:39;;;;;;;43.03;24.30;;;31.40;99.90;;;;;;5062232;28;20044;-68
2022/08/01 10:12:06;;;;;;;30.63;17.73;;;31.40;99.90;;;;;;5061168;28;20025;-67
2022/08/01 10:14:32;;;;;;;53.08;28.40;;;31.50;99.90;;;;;;5062879;28;20359;-67
2022/08/01 10:17:01;;;;;;;54.25;27.85;;;31.50;99.90;;;;;;5062331;28;20028;-67
2022/08/01 10:19:29;;;;;;;31.98;16.23;;;31.40;99.90;;;;;;5065427;28;20159;-67
2022/08/01 10:21:57;;;;;;;30.52;14.52;;;31.30;99.90;;;;;;5065421;28;20028;-68
2022/08/01 10:24:25;;;;;;;41.22;17.80;;;31.30;99.90;;;;;;5061247;28;20083;-68
2022/08/01 10:27:02;;;;;;;37.88;16.77;;;31.30;99.90;;;;;;5062690;28;20016;-67
2022/08/01 10:29:36;;;;;;;88.72;36.38;;;31.30;99.90;;;;;;5061733;28;20025;-67
2022/08/01 10:32:06;;;;;;;69.22;33.15;;;31.30;99.90;;;;;;5063568;28;20124;-67
2022/08/01 10:34:35;;;;;;;58.08;29.42;;;31.40;99.90;;;;;;5061830;28;20086;-67
2022/08/01 10:37:01;;;;;;;53.42;26.63;;;31.40;99.90;;;;;;5062147;28;20016;-67
2022/08/01 10:39:30;;;;;;;116.97;70.47;;;31.30;99.90;;;;;;5063136;28;20024;-67
2022/08/01 10:41:56;;;;;;;146.55;106.25;;;31.30;99.90;;;;;;5062063;28;20016;-65
2022/08/01 10:44:28;;;;;;;72.13;47.63;;;31.30;99.90;;;;;;5061494;28;20048;-67
2022/08/01 10:47:08;;;;;;;78.03;53.08;;;31.30;99.90;;;;;;5061784;28;20025;-67
2022/08/01 10:49:51;;;;;;;103.85;64.30;;;31.30;99.90;;;;;;5065071;28;20045;-67
2022/08/01 10:52:18;;;;;;;174.13;105.35;;;31.30;99.90;;;;;;5062028;28;20017;-67
2022/08/01 10:54:46;;;;;;;167.35;107.13;;;31.30;99.90;;;;;;5070395;28;20112;-67
2022/08/01 10:57:13;;;;;;;67.78;38.45;;;31.30;99.90;;;;;;5073347;28;20067;-67
2022/08/01 10:59:51;;;;;;;79.97;49.22;;;31.20;99.90;;;;;;5073199;28;20082;-67
2022/08/01 11:02:40;;;;;;;55.88;28.00;;;31.20;99.90;;;;;;5073144;28;20070;-67
2022/08/01 11:05:19;;;;;;;88.40;50.33;;;31.20;99.90;;;;;;5073044;28;20073;-66
2022/08/01 11:07:52;;;;;;;99.78;55.00;;;31.20;99.90;;;;;;5072917;28;20059;-68
2022/08/01 11:10:31;;;;;;;57.67;31.75;;;31.20;99.90;;;;;;5073002;28;20025;-67
2022/08/01 11:13:00;;;;;;;105.78;51.85;;;31.10;99.90;;;;;;5073021;28;20025;-67
2022/08/01 11:15:28;;;;;;;118.65;55.47;;;31.10;99.90;;;;;;5072993;28;20378;-67
2022/08/01 11:17:55;;;;;;;124.55;57.38;;;31.20;99.90;;;;;;5072945;28;20056;-66
2022/08/01 11:20:23;;;;;;;90.07;40.92;;;31.20;99.90;;;;;;5073004;28;20393;-67
2022/08/01 11:23:01;;;;;;;121.50;55.95;;;31.20;99.90;;;;;;5072782;28;20028;-68
2022/08/01 11:25:48;;;;;;;151.23;65.68;;;31.20;99.90;;;;;;5072963;28;20439;-67
2022/08/01 11:28:16;;;;;;;161.73;67.93;;;31.10;99.90;;;;;;5072763;28;20035;-67
2022/08/01 11:30:51;;;;;;;130.90;64.68;;;31.00;99.90;;;;;;5072891;28;20052;-66
2022/08/01 11:33:38;;;;;;;147.70;66.18;;;31.00;99.90;;;;;;5072776;28;20054;-67
2022/08/01 11:36:15;;;;;;;112.30;55.97;;;30.90;99.90;;;;;;5072746;28;20433;-68
2022/08/01 11:38:47;;;;;;;130.05;63.00;;;31.00;99.90;;;;;;5073493;28;20397;-68
2022/08/01 11:41:26;;;;;;;82.90;42.75;;;30.90;99.90;;;;;;5076839;28;20029;-69
2022/08/01 11:43:56;;;;;;;69.90;38.55;;;30.80;99.90;;;;;;5076790;28;20031;-68
2022/08/01 11:46:52;;;;;;;91.10;47.13;;;30.90;99.90;;;;;;5076525;28;20025;-68
2022/08/01 11:49:31;;;;;;;90.78;49.47;;;30.90;99.90;;;;;;5076544;28;20070;-69
2022/08/01 11:52:08;;;;;;;65.25;33.15;;;30.90;99.90;;;;;;5076494;28;20428;-68
2022/08/01 11:54:38;;;;;;;71.05;31.08;;;30.80;99.90;;;;;;5076147;28;20025;-68
2022/08/01 11:57:07;;;;;;;77.53;34.30;;;30.80;99.90;;;;;;5076444;28;20485;-67
2022/08/01 11:59:47;;;;;;;71.25;33.33;;;30.70;99.90;;;;;;5076513;28;20094;-67
2022/08/01 12:02:27;;;;;;;73.93;33.10;;;30.70;99.90;;;;;;5076318;28;20068;-68
2022/08/01 12:04:56;;;;;;;65.65;34.63;;;30.70;99.90;;;;;;5076268;28;20029;-69
2022/08/01 12:07:24;;;;;;;65.93;34.05;;;30.70;99.90;;;;;;5076103;28;20028;-69
2022/08/01 12:10:00;;;;;;;70.35;34.03;;;30.70;99.90;;;;;;5076292;28;20017;-68
2022/08/01 12:12:28;;;;;;;54.15;28.80;;;30.60;99.90;;;;;;5076167;28;20020;-68
2022/08/01 12:15:14;;;;;;;60.22;26.67;;;30.60;99.90;;;;;;5076495;28;20032;-69
2022/08/01 12:17:46;;;;;;;54.90;28.83;;;30.50;99.90;;;;;;5076334;28;20447;-69
2022/08/01 12:20:21;;;;;;;50.33;27.10;;;30.50;99.90;;;;;;5076322;28;20473;-69
2022/08/01 12:22:52;;;;;;;85.25;41.78;;;30.40;99.90;;;;;;5076100;28;20442;-70
2022/08/01 12:25:19;;;;;;;68.13;34.70;;;30.40;99.90;;;;;;5076246;28;20032;-69
2022/08/01 12:27:46;;;;;;;73.13;37.20;;;30.40;99.90;;;;;;5076215;28;20718;-69
2022/08/01 12:30:15;;;;;;;64.55;34.63;;;30.40;99.90;;;;;;5076119;28;20075;-68
2022/08/01 12:32:45;;;;;;;71.55;35.15;;;30.40;99.90;;;;;;5075916;28;20131;-68
2022/08/01 12:35:14;;;;;;;63.25;34.67;;;30.40;99.90;;;;;;5076053;28;20027;-70
2022/08/01 12:37:47;;;;;;;70.10;33.90;;;30.40;99.90;;;;;;5075585;28;20054;-68
2022/08/01 12:40:18;;;;;;;76.63;36.33;;;30.30;99.90;;;;;;5075906;28;20047;-69
2022/08/01 12:42:48;;;;;;;101.75;42.08;;;30.30;99.90;;;;;;5075915;28;20035;-68
2022/08/01 12:45:20;;;;;;;98.60;42.42;;;30.30;99.90;;;;;;5075596;28;20028;-69